sensor_id;sensor_type;location;lat;lon;timestamp;temperature;humidity
14095;DHT22;18096;48.142;16.290;2023-02-11T00:00:03;2.40;67.70
14095;DHT22;18096;48.142;16.290;2023-02-11T00:02:31;2.50;67.70
14095;DHT22;18096;48.142;16.290;2023-02-11T00:04:57;2.50;67.90
14095;DHT22;18096;48.142;16.290;2023-02-11T00:07:23;2.40;67.90
14095;DHT22;18096;48.142;16.290;2023-02-11T00:09:49;2.30;68.10
14095;DHT22;18096;48.142;16.290;2023-02-11T00:12:15;2.10;68.50
14095;DHT22;18096;48.142;16.290;2023-02-11T00:14:43;2.10;68.90
14095;DHT22;18096;48.142;16.290;2023-02-11T00:17:09;1.90;69.00
14095;DHT22;18096;48.142;16.290;2023-02-11T00:19:35;1.80;69.60
14095;DHT22;18096;48.142;16.290;2023-02-11T00:22:00;1.80;70.80
14095;DHT22;18096;48.142;16.290;2023-02-11T00:24:26;1.80;70.50
14095;DHT22;18096;48.142;16.290;2023-02-11T00:26:52;1.80;70.60
14095;DHT22;18096;48.142;16.290;2023-02-11T00:29:17;1.80;70.50
14095;DHT22;18096;48.142;16.290;2023-02-11T00:31:43;1.70;70.80
14095;DHT22;18096;48.142;16.290;2023-02-11T00:34:09;1.60;71.30
14095;DHT22;18096;48.142;16.290;2023-02-11T00:36:34;1.50;71.60
14095;DHT22;18096;48.142;16.290;2023-02-11T00:39:00;1.30;72.20
14095;DHT22;18096;48.142;16.290;2023-02-11T00:41:26;1.30;72.70
14095;DHT22;18096;48.142;16.290;2023-02-11T00:43:52;1.20;73.10
14095;DHT22;18096;48.142;16.290;2023-02-11T00:46:18;1.20;73.40
14095;DHT22;18096;48.142;16.290;2023-02-11T00:48:44;1.10;73.70
14095;DHT22;18096;48.142;16.290;2023-02-11T00:51:10;1.10;74.00
14095;DHT22;18096;48.142;16.290;2023-02-11T00:53:36;1.00;74.30
14095;DHT22;18096;48.142;16.290;2023-02-11T00:56:02;1.00;74.60
14095;DHT22;18096;48.142;16.290;2023-02-11T00:58:28;0.90;74.80
14095;DHT22;18096;48.142;16.290;2023-02-11T01:00:54;1.00;75.80
14095;DHT22;18096;48.142;16.290;2023-02-11T01:03:20;0.90;75.50
14095;DHT22;18096;48.142;16.290;2023-02-11T01:05:46;0.80;76.40
14095;DHT22;18096;48.142;16.290;2023-02-11T01:08:11;0.80;76.10
14095;DHT22;18096;48.142;16.290;2023-02-11T01:10:37;0.80;76.60
14095;DHT22;18096;48.142;16.290;2023-02-11T01:13:03;0.80;77.00
14095;DHT22;18096;48.142;16.290;2023-02-11T01:15:31;0.80;77.20
14095;DHT22;18096;48.142;16.290;2023-02-11T01:17:57;0.70;77.80
14095;DHT22;18096;48.142;16.290;2023-02-11T01:20:26;0.70;78.10
14095;DHT22;18096;48.142;16.290;2023-02-11T01:22:52;0.70;78.40
14095;DHT22;18096;48.142;16.290;2023-02-11T01:25:17;0.80;78.70
14095;DHT22;18096;48.142;16.290;2023-02-11T01:27:43;0.80;78.90
14095;DHT22;18096;48.142;16.290;2023-02-11T01:30:11;0.80;79.10
14095;DHT22;18096;48.142;16.290;2023-02-11T01:32:38;0.70;79.50
14095;DHT22;18096;48.142;16.290;2023-02-11T01:35:05;0.70;79.80
14095;DHT22;18096;48.142;16.290;2023-02-11T01:37:34;0.60;80.30
14095;DHT22;18096;48.142;16.290;2023-02-11T01:40:02;0.50;80.60
14095;DHT22;18096;48.142;16.290;2023-02-11T01:42:27;0.50;81.10
14095;DHT22;18096;48.142;16.290;2023-02-11T01:44:54;0.50;81.60
14095;DHT22;18096;48.142;16.290;2023-02-11T01:47:20;0.50;81.90
14095;DHT22;18096;48.142;16.290;2023-02-11T01:49:51;0.50;81.80
14095;DHT22;18096;48.142;16.290;2023-02-11T01:52:25;0.50;82.20
14095;DHT22;18096;48.142;16.290;2023-02-11T01:54:54;0.50;82.40
14095;DHT22;18096;48.142;16.290;2023-02-11T01:57:42;0.50;82.50
14095;DHT22;18096;48.142;16.290;2023-02-11T02:08:26;0.60;83.10
14095;DHT22;18096;48.142;16.290;2023-02-11T02:10:55;0.60;83.60
14095;DHT22;18096;48.142;16.290;2023-02-11T02:13:25;0.70;83.60
14095;DHT22;18096;48.142;16.290;2023-02-11T02:15:54;0.70;83.90
14095;DHT22;18096;48.142;16.290;2023-02-11T02:35:24;0.40;86.10
14095;DHT22;18096;48.142;16.290;2023-02-11T02:40:20;0.30;87.00
14095;DHT22;18096;48.142;16.290;2023-02-11T02:42:48;0.30;87.40
14095;DHT22;18096;48.142;16.290;2023-02-11T02:45:15;0.30;87.50
14095;DHT22;18096;48.142;16.290;2023-02-11T02:47:42;0.40;88.00
14095;DHT22;18096;48.142;16.290;2023-02-11T02:50:07;0.40;88.10
14095;DHT22;18096;48.142;16.290;2023-02-11T03:04:08;0.70;89.10
14095;DHT22;18096;48.142;16.290;2023-02-11T03:06:54;0.60;89.50
14095;DHT22;18096;48.142;16.290;2023-02-11T03:11:48;0.70;90.10
14095;DHT22;18096;48.142;16.290;2023-02-11T03:14:16;0.80;90.50
14095;DHT22;18096;48.142;16.290;2023-02-11T03:16:44;0.90;90.60
14095;DHT22;18096;48.142;16.290;2023-02-11T03:21:43;1.00;90.80
14095;DHT22;18096;48.142;16.290;2023-02-11T03:24:17;1.10;91.00
14095;DHT22;18096;48.142;16.290;2023-02-11T03:26:49;1.10;91.10
14095;DHT22;18096;48.142;16.290;2023-02-11T03:29:43;1.20;91.10
14095;DHT22;18096;48.142;16.290;2023-02-11T03:32:38;1.20;91.40
14095;DHT22;18096;48.142;16.290;2023-02-11T03:37:40;1.40;91.80
14095;DHT22;18096;48.142;16.290;2023-02-11T03:40:12;1.50;92.00
14095;DHT22;18096;48.142;16.290;2023-02-11T03:42:55;1.60;92.00
14095;DHT22;18096;48.142;16.290;2023-02-11T03:45:22;1.70;92.00
14095;DHT22;18096;48.142;16.290;2023-02-11T03:48:02;1.80;91.90
14095;DHT22;18096;48.142;16.290;2023-02-11T03:50:31;1.90;91.80
14095;DHT22;18096;48.142;16.290;2023-02-11T03:53:00;2.00;91.80
14095;DHT22;18096;48.142;16.290;2023-02-11T03:55:28;2.10;91.70
14095;DHT22;18096;48.142;16.290;2023-02-11T03:57:54;2.20;91.50
14095;DHT22;18096;48.142;16.290;2023-02-11T04:00:20;2.30;91.30
14095;DHT22;18096;48.142;16.290;2023-02-11T04:02:53;2.40;91.20
14095;DHT22;18096;48.142;16.290;2023-02-11T04:05:19;2.40;91.10
14095;DHT22;18096;48.142;16.290;2023-02-11T04:07:45;2.50;91.00
14095;DHT22;18096;48.142;16.290;2023-02-11T04:10:11;2.50;90.80
14095;DHT22;18096;48.142;16.290;2023-02-11T04:12:37;2.50;90.70
14095;DHT22;18096;48.142;16.290;2023-02-11T04:15:03;2.50;90.50
14095;DHT22;18096;48.142;16.290;2023-02-11T04:17:28;2.60;90.40
14095;DHT22;18096;48.142;16.290;2023-02-11T04:19:54;2.50;90.30
14095;DHT22;18096;48.142;16.290;2023-02-11T04:22:20;2.50;90.20
14095;DHT22;18096;48.142;16.290;2023-02-11T04:24:45;2.50;90.10
14095;DHT22;18096;48.142;16.290;2023-02-11T04:27:11;2.40;90.20
14095;DHT22;18096;48.142;16.290;2023-02-11T04:29:37;2.40;90.20
14095;DHT22;18096;48.142;16.290;2023-02-11T04:32:02;2.40;90.40
14095;DHT22;18096;48.142;16.290;2023-02-11T04:34:28;2.40;90.50
14095;DHT22;18096;48.142;16.290;2023-02-11T04:36:54;2.50;90.50
14095;DHT22;18096;48.142;16.290;2023-02-11T04:39:19;2.50;90.50
14095;DHT22;18096;48.142;16.290;2023-02-11T04:41:45;2.50;90.40
14095;DHT22;18096;48.142;16.290;2023-02-11T04:44:11;2.50;90.40
14095;DHT22;18096;48.142;16.290;2023-02-11T04:46:37;2.60;90.50
14095;DHT22;18096;48.142;16.290;2023-02-11T04:49:02;2.60;90.40
14095;DHT22;18096;48.142;16.290;2023-02-11T04:51:28;2.70;90.40
14095;DHT22;18096;48.142;16.290;2023-02-11T04:53:54;2.70;90.30
14095;DHT22;18096;48.142;16.290;2023-02-11T04:56:19;2.70;90.20
14095;DHT22;18096;48.142;16.290;2023-02-11T04:58:45;2.70;90.20
14095;DHT22;18096;48.142;16.290;2023-02-11T05:01:14;2.80;90.10
14095;DHT22;18096;48.142;16.290;2023-02-11T05:03:40;2.80;90.10
14095;DHT22;18096;48.142;16.290;2023-02-11T05:06:06;2.90;90.00
14095;DHT22;18096;48.142;16.290;2023-02-11T05:08:33;2.90;90.00
14095;DHT22;18096;48.142;16.290;2023-02-11T05:10:59;2.90;89.90
14095;DHT22;18096;48.142;16.290;2023-02-11T05:13:26;2.90;89.80
14095;DHT22;18096;48.142;16.290;2023-02-11T05:15:52;3.00;89.80
14095;DHT22;18096;48.142;16.290;2023-02-11T05:18:18;3.00;89.60
14095;DHT22;18096;48.142;16.290;2023-02-11T05:20:43;3.00;89.50
14095;DHT22;18096;48.142;16.290;2023-02-11T05:23:10;3.10;89.50
14095;DHT22;18096;48.142;16.290;2023-02-11T05:25:36;3.10;89.30
14095;DHT22;18096;48.142;16.290;2023-02-11T05:28:02;3.20;89.30
14095;DHT22;18096;48.142;16.290;2023-02-11T05:30:29;3.20;88.70
14095;DHT22;18096;48.142;16.290;2023-02-11T05:32:55;3.20;88.60
14095;DHT22;18096;48.142;16.290;2023-02-11T05:35:20;3.20;88.40
14095;DHT22;18096;48.142;16.290;2023-02-11T05:37:46;3.30;88.30
14095;DHT22;18096;48.142;16.290;2023-02-11T05:40:12;3.30;88.00
14095;DHT22;18096;48.142;16.290;2023-02-11T05:42:38;3.30;87.70
14095;DHT22;18096;48.142;16.290;2023-02-11T05:45:04;3.30;87.40
14095;DHT22;18096;48.142;16.290;2023-02-11T05:47:30;3.40;87.20
14095;DHT22;18096;48.142;16.290;2023-02-11T05:49:55;3.40;87.10
14095;DHT22;18096;48.142;16.290;2023-02-11T05:52:21;3.40;86.70
14095;DHT22;18096;48.142;16.290;2023-02-11T05:54:47;3.40;86.30
14095;DHT22;18096;48.142;16.290;2023-02-11T05:57:13;3.40;85.90
14095;DHT22;18096;48.142;16.290;2023-02-11T05:59:39;3.40;85.50
14095;DHT22;18096;48.142;16.290;2023-02-11T06:02:06;3.40;85.10
14095;DHT22;18096;48.142;16.290;2023-02-11T06:04:33;3.40;84.90
14095;DHT22;18096;48.142;16.290;2023-02-11T06:06:58;3.40;84.80
14095;DHT22;18096;48.142;16.290;2023-02-11T06:09:24;3.40;84.70
14095;DHT22;18096;48.142;16.290;2023-02-11T06:11:50;3.40;84.70
14095;DHT22;18096;48.142;16.290;2023-02-11T06:14:16;3.40;84.60
14095;DHT22;18096;48.142;16.290;2023-02-11T06:16:42;3.40;84.40
14095;DHT22;18096;48.142;16.290;2023-02-11T06:19:08;3.40;84.10
14095;DHT22;18096;48.142;16.290;2023-02-11T06:21:33;3.50;83.90
14095;DHT22;18096;48.142;16.290;2023-02-11T06:23:59;3.50;83.90
14095;DHT22;18096;48.142;16.290;2023-02-11T06:26:25;3.50;83.50
14095;DHT22;18096;48.142;16.290;2023-02-11T06:28:50;3.50;83.40
14095;DHT22;18096;48.142;16.290;2023-02-11T06:31:16;3.50;83.20
14095;DHT22;18096;48.142;16.290;2023-02-11T06:33:42;3.60;83.30
14095;DHT22;18096;48.142;16.290;2023-02-11T06:36:16;3.60;83.10
14095;DHT22;18096;48.142;16.290;2023-02-11T06:38:42;3.60;82.80
14095;DHT22;18096;48.142;16.290;2023-02-11T06:41:13;3.60;82.50
14095;DHT22;18096;48.142;16.290;2023-02-11T06:43:40;3.70;82.20
14095;DHT22;18096;48.142;16.290;2023-02-11T06:46:06;3.70;82.10
14095;DHT22;18096;48.142;16.290;2023-02-11T06:48:32;3.70;82.10
14095;DHT22;18096;48.142;16.290;2023-02-11T06:51:06;3.80;82.00
14095;DHT22;18096;48.142;16.290;2023-02-11T06:53:41;3.80;81.50
14095;DHT22;18096;48.142;16.290;2023-02-11T06:56:10;3.90;81.20
14095;DHT22;18096;48.142;16.290;2023-02-11T06:58:35;3.90;80.90
14095;DHT22;18096;48.142;16.290;2023-02-11T07:01:07;3.90;80.50
14095;DHT22;18096;48.142;16.290;2023-02-11T07:03:35;4.00;80.00
14095;DHT22;18096;48.142;16.290;2023-02-11T07:06:09;4.10;79.80
14095;DHT22;18096;48.142;16.290;2023-02-11T07:08:37;4.10;79.20
14095;DHT22;18096;48.142;16.290;2023-02-11T07:11:17;4.20;78.80
14095;DHT22;18096;48.142;16.290;2023-02-11T07:13:43;4.20;78.10
14095;DHT22;18096;48.142;16.290;2023-02-11T07:16:12;4.30;77.80
14095;DHT22;18096;48.142;16.290;2023-02-11T07:18:39;4.30;77.20
14095;DHT22;18096;48.142;16.290;2023-02-11T07:21:09;4.40;76.90
14095;DHT22;18096;48.142;16.290;2023-02-11T07:23:36;4.50;76.50
14095;DHT22;18096;48.142;16.290;2023-02-11T07:26:06;4.50;75.40
14095;DHT22;18096;48.142;16.290;2023-02-11T07:28:33;4.60;75.00
14095;DHT22;18096;48.142;16.290;2023-02-11T07:31:08;4.70;74.70
14095;DHT22;18096;48.142;16.290;2023-02-11T07:33:35;4.80;74.30
14095;DHT22;18096;48.142;16.290;2023-02-11T07:36:02;4.80;74.00
14095;DHT22;18096;48.142;16.290;2023-02-11T07:38:29;4.90;73.50
14095;DHT22;18096;48.142;16.290;2023-02-11T07:40:59;4.90;73.30
14095;DHT22;18096;48.142;16.290;2023-02-11T07:43:25;5.00;72.90
14095;DHT22;18096;48.142;16.290;2023-02-11T07:45:51;5.10;73.30
14095;DHT22;18096;48.142;16.290;2023-02-11T07:48:17;5.10;72.70
14095;DHT22;18096;48.142;16.290;2023-02-11T07:50:42;5.20;72.20
14095;DHT22;18096;48.142;16.290;2023-02-11T07:53:08;5.20;71.50
14095;DHT22;18096;48.142;16.290;2023-02-11T07:55:34;5.20;71.20
14095;DHT22;18096;48.142;16.290;2023-02-11T07:57:59;5.30;70.80
14095;DHT22;18096;48.142;16.290;2023-02-11T08:00:25;5.30;70.60
14095;DHT22;18096;48.142;16.290;2023-02-11T08:02:51;5.30;70.10
14095;DHT22;18096;48.142;16.290;2023-02-11T08:05:17;5.40;69.90
14095;DHT22;18096;48.142;16.290;2023-02-11T08:07:42;5.40;69.70
14095;DHT22;18096;48.142;16.290;2023-02-11T08:10:08;5.40;69.50
14095;DHT22;18096;48.142;16.290;2023-02-11T08:12:34;5.40;69.30
14095;DHT22;18096;48.142;16.290;2023-02-11T08:15:00;5.50;69.10
14095;DHT22;18096;48.142;16.290;2023-02-11T08:17:25;5.50;69.10
14095;DHT22;18096;48.142;16.290;2023-02-11T08:19:51;5.50;68.90
14095;DHT22;18096;48.142;16.290;2023-02-11T08:22:17;5.60;69.00
14095;DHT22;18096;48.142;16.290;2023-02-11T08:24:42;5.60;68.80
14095;DHT22;18096;48.142;16.290;2023-02-11T08:27:08;5.60;68.30
14095;DHT22;18096;48.142;16.290;2023-02-11T08:29:34;5.60;68.10
14095;DHT22;18096;48.142;16.290;2023-02-11T08:31:59;5.60;67.70
14095;DHT22;18096;48.142;16.290;2023-02-11T08:34:25;5.70;67.60
14095;DHT22;18096;48.142;16.290;2023-02-11T08:36:51;5.70;67.50
14095;DHT22;18096;48.142;16.290;2023-02-11T08:39:21;5.70;67.20
14095;DHT22;18096;48.142;16.290;2023-02-11T08:41:49;5.70;67.20
14095;DHT22;18096;48.142;16.290;2023-02-11T08:44:17;5.80;66.70
14095;DHT22;18096;48.142;16.290;2023-02-11T08:46:42;5.80;66.60
14095;DHT22;18096;48.142;16.290;2023-02-11T08:49:08;5.80;67.20
14095;DHT22;18096;48.142;16.290;2023-02-11T08:51:34;5.80;66.30
14095;DHT22;18096;48.142;16.290;2023-02-11T08:54:00;5.80;66.30
14095;DHT22;18096;48.142;16.290;2023-02-11T08:56:26;5.80;66.10
14095;DHT22;18096;48.142;16.290;2023-02-11T08:58:52;5.90;65.90
14095;DHT22;18096;48.142;16.290;2023-02-11T09:01:25;5.90;65.80
14095;DHT22;18096;48.142;16.290;2023-02-11T09:03:51;5.90;65.70
14095;DHT22;18096;48.142;16.290;2023-02-11T09:06:17;6.00;65.90
14095;DHT22;18096;48.142;16.290;2023-02-11T09:08:46;6.00;65.80
14095;DHT22;18096;48.142;16.290;2023-02-11T09:11:14;6.00;65.60
14095;DHT22;18096;48.142;16.290;2023-02-11T09:13:41;6.10;65.40
14095;DHT22;18096;48.142;16.290;2023-02-11T09:16:08;6.10;65.30
14095;DHT22;18096;48.142;16.290;2023-02-11T09:18:39;6.20;65.50
14095;DHT22;18096;48.142;16.290;2023-02-11T09:21:07;6.20;65.50
14095;DHT22;18096;48.142;16.290;2023-02-11T09:23:33;6.30;65.30
14095;DHT22;18096;48.142;16.290;2023-02-11T09:26:07;6.40;65.10
14095;DHT22;18096;48.142;16.290;2023-02-11T09:28:33;6.40;64.90
14095;DHT22;18096;48.142;16.290;2023-02-11T09:31:04;6.50;64.90
14095;DHT22;18096;48.142;16.290;2023-02-11T09:33:30;6.60;64.80
14095;DHT22;18096;48.142;16.290;2023-02-11T09:36:03;6.60;64.80
14095;DHT22;18096;48.142;16.290;2023-02-11T09:38:29;6.70;64.80
14095;DHT22;18096;48.142;16.290;2023-02-11T09:40:54;6.70;65.00
14095;DHT22;18096;48.142;16.290;2023-02-11T09:43:23;6.70;64.80
14095;DHT22;18096;48.142;16.290;2023-02-11T09:45:54;6.70;64.90
14095;DHT22;18096;48.142;16.290;2023-02-11T09:48:21;6.70;65.10
14095;DHT22;18096;48.142;16.290;2023-02-11T09:50:53;6.70;65.10
14095;DHT22;18096;48.142;16.290;2023-02-11T09:53:25;6.70;65.20
14095;DHT22;18096;48.142;16.290;2023-02-11T09:55:54;6.70;65.10
14095;DHT22;18096;48.142;16.290;2023-02-11T09:58:33;6.70;65.40
14095;DHT22;18096;48.142;16.290;2023-02-11T10:21:00;6.80;65.00
14095;DHT22;18096;48.142;16.290;2023-02-11T10:23:33;6.80;64.40
14095;DHT22;18096;48.142;16.290;2023-02-11T10:26:00;6.90;64.00
14095;DHT22;18096;48.142;16.290;2023-02-11T10:28:32;6.90;63.30
14095;DHT22;18096;48.142;16.290;2023-02-11T10:31:10;6.90;63.10
14095;DHT22;18096;48.142;16.290;2023-02-11T10:33:51;7.00;62.60
14095;DHT22;18096;48.142;16.290;2023-02-11T10:36:22;7.10;62.50
14095;DHT22;18096;48.142;16.290;2023-02-11T10:38:49;7.10;62.10
14095;DHT22;18096;48.142;16.290;2023-02-11T10:41:19;7.20;61.80
14095;DHT22;18096;48.142;16.290;2023-02-11T10:43:45;7.20;61.70
14095;DHT22;18096;48.142;16.290;2023-02-11T10:46:18;7.30;61.50
14095;DHT22;18096;48.142;16.290;2023-02-11T10:48:51;7.30;61.40
14095;DHT22;18096;48.142;16.290;2023-02-11T10:51:21;7.50;61.00
14095;DHT22;18096;48.142;16.290;2023-02-11T10:53:49;7.50;61.00
14095;DHT22;18096;48.142;16.290;2023-02-11T10:56:26;7.60;60.00
14095;DHT22;18096;48.142;16.290;2023-02-11T10:59:04;7.60;59.10
14095;DHT22;18096;48.142;16.290;2023-02-11T11:01:44;7.70;59.30
14095;DHT22;18096;48.142;16.290;2023-02-11T11:04:42;7.70;58.80
14095;DHT22;18096;48.142;16.290;2023-02-11T11:10:04;7.70;57.70
14095;DHT22;18096;48.142;16.290;2023-02-11T11:17:36;7.80;57.90
14095;DHT22;18096;48.142;16.290;2023-02-11T11:22:48;7.90;56.50
14095;DHT22;18096;48.142;16.290;2023-02-11T11:25:27;7.90;56.30
14095;DHT22;18096;48.142;16.290;2023-02-11T11:27:57;7.90;55.90
14095;DHT22;18096;48.142;16.290;2023-02-11T11:30:33;7.90;55.70
14095;DHT22;18096;48.142;16.290;2023-02-11T11:33:03;7.90;55.70
14095;DHT22;18096;48.142;16.290;2023-02-11T11:35:30;7.90;55.80
14095;DHT22;18096;48.142;16.290;2023-02-11T11:38:05;8.00;56.00
14095;DHT22;18096;48.142;16.290;2023-02-11T11:40:35;8.00;56.10
14095;DHT22;18096;48.142;16.290;2023-02-11T11:43:20;8.00;56.10
14095;DHT22;18096;48.142;16.290;2023-02-11T11:45:57;8.00;56.00
14095;DHT22;18096;48.142;16.290;2023-02-11T11:51:04;8.00;55.80
14095;DHT22;18096;48.142;16.290;2023-02-11T11:56:32;8.10;55.00
14095;DHT22;18096;48.142;16.290;2023-02-11T11:59:01;8.10;54.60
14095;DHT22;18096;48.142;16.290;2023-02-11T12:01:46;8.10;54.60
14095;DHT22;18096;48.142;16.290;2023-02-11T12:15:31;8.20;60.20
14095;DHT22;18096;48.142;16.290;2023-02-11T12:20:37;8.40;57.20
14095;DHT22;18096;48.142;16.290;2023-02-11T12:26:20;8.40;57.20
14095;DHT22;18096;48.142;16.290;2023-02-11T12:52:32;8.30;55.40
14095;DHT22;18096;48.142;16.290;2023-02-11T12:55:14;8.30;55.00
14095;DHT22;18096;48.142;16.290;2023-02-11T12:57:45;8.30;53.50
14095;DHT22;18096;48.142;16.290;2023-02-11T13:00:22;8.30;53.20
14095;DHT22;18096;48.142;16.290;2023-02-11T13:03:03;8.40;52.50
14095;DHT22;18096;48.142;16.290;2023-02-11T13:06:15;8.40;51.90
14095;DHT22;18096;48.142;16.290;2023-02-11T13:08:29;8.50;51.80
14095;DHT22;18096;48.142;16.290;2023-02-11T13:11:06;8.50;51.30
14095;DHT22;18096;48.142;16.290;2023-02-11T13:14:06;8.50;50.90
14095;DHT22;18096;48.142;16.290;2023-02-11T13:16:43;8.50;51.10
14095;DHT22;18096;48.142;16.290;2023-02-11T13:19:29;8.50;51.10
14095;DHT22;18096;48.142;16.290;2023-02-11T13:22:08;8.60;50.70
14095;DHT22;18096;48.142;16.290;2023-02-11T13:30:07;8.50;50.60
14095;DHT22;18096;48.142;16.290;2023-02-11T13:36:10;8.40;51.10
14095;DHT22;18096;48.142;16.290;2023-02-11T13:38:35;8.30;51.40
14095;DHT22;18096;48.142;16.290;2023-02-11T13:41:17;8.20;51.70
14095;DHT22;18096;48.142;16.290;2023-02-11T13:44:12;8.20;52.10
14095;DHT22;18096;48.142;16.290;2023-02-11T13:47:05;8.10;52.00
14095;DHT22;18096;48.142;16.290;2023-02-11T13:49:40;8.10;52.10
14095;DHT22;18096;48.142;16.290;2023-02-11T13:52:30;8.00;52.20
14095;DHT22;18096;48.142;16.290;2023-02-11T13:57:39;7.90;52.70
14095;DHT22;18096;48.142;16.290;2023-02-11T14:06:10;7.80;53.20
14095;DHT22;18096;48.142;16.290;2023-02-11T14:19:41;7.80;53.70
14095;DHT22;18096;48.142;16.290;2023-02-11T14:22:21;7.80;53.50
14095;DHT22;18096;48.142;16.290;2023-02-11T14:24:58;7.70;53.50
14095;DHT22;18096;48.142;16.290;2023-02-11T14:27:29;7.70;53.90
14095;DHT22;18096;48.142;16.290;2023-02-11T14:33:15;7.60;54.30
14095;DHT22;18096;48.142;16.290;2023-02-11T14:41:19;7.60;55.40
14095;DHT22;18096;48.142;16.290;2023-02-11T14:43:50;7.50;55.60
14095;DHT22;18096;48.142;16.290;2023-02-11T14:46:18;7.50;55.90
14095;DHT22;18096;48.142;16.290;2023-02-11T14:48:48;7.50;56.10
14095;DHT22;18096;48.142;16.290;2023-02-11T14:51:26;7.50;56.60
14095;DHT22;18096;48.142;16.290;2023-02-11T14:54:02;7.40;56.90
14095;DHT22;18096;48.142;16.290;2023-02-11T14:56:30;7.40;57.30
14095;DHT22;18096;48.142;16.290;2023-02-11T14:58:59;7.40;57.80
14095;DHT22;18096;48.142;16.290;2023-02-11T15:01:31;7.40;58.10
14095;DHT22;18096;48.142;16.290;2023-02-11T15:04:01;7.30;58.40
14095;DHT22;18096;48.142;16.290;2023-02-11T15:06:35;7.30;58.70
14095;DHT22;18096;48.142;16.290;2023-02-11T15:09:40;7.30;59.80
14095;DHT22;18096;48.142;16.290;2023-02-11T15:11:59;7.30;59.60
14095;DHT22;18096;48.142;16.290;2023-02-11T15:14:27;7.30;60.10
14095;DHT22;18096;48.142;16.290;2023-02-11T15:16:57;7.30;60.60
14095;DHT22;18096;48.142;16.290;2023-02-11T15:19:27;7.20;60.80
14095;DHT22;18096;48.142;16.290;2023-02-11T15:21:54;7.20;61.30
14095;DHT22;18096;48.142;16.290;2023-02-11T15:24:29;7.20;61.90
14095;DHT22;18096;48.142;16.290;2023-02-11T15:27:02;7.20;62.50
14095;DHT22;18096;48.142;16.290;2023-02-11T15:29:43;7.10;63.00
14095;DHT22;18096;48.142;16.290;2023-02-11T15:32:24;7.10;64.00
14095;DHT22;18096;48.142;16.290;2023-02-11T15:34:53;7.10;64.60
14095;DHT22;18096;48.142;16.290;2023-02-11T15:37:24;7.10;65.10
14095;DHT22;18096;48.142;16.290;2023-02-11T15:39:52;7.00;65.60
14095;DHT22;18096;48.142;16.290;2023-02-11T15:45:07;7.00;66.80
14095;DHT22;18096;48.142;16.290;2023-02-11T15:47:33;7.00;67.70
14095;DHT22;18096;48.142;16.290;2023-02-11T15:50:00;7.00;68.00
14095;DHT22;18096;48.142;16.290;2023-02-11T15:52:27;7.00;68.40
14095;DHT22;18096;48.142;16.290;2023-02-11T15:54:55;7.00;68.70
14095;DHT22;18096;48.142;16.290;2023-02-11T15:57:25;7.00;69.40
14095;DHT22;18096;48.142;16.290;2023-02-11T15:59:53;7.00;69.80
14095;DHT22;18096;48.142;16.290;2023-02-11T16:02:31;7.00;70.30
14095;DHT22;18096;48.142;16.290;2023-02-11T16:05:04;6.90;70.60
14095;DHT22;18096;48.142;16.290;2023-02-11T16:07:49;6.90;71.10
14095;DHT22;18096;48.142;16.290;2023-02-11T16:10:18;6.90;71.60
14095;DHT22;18096;48.142;16.290;2023-02-11T16:15:55;6.80;72.50
14095;DHT22;18096;48.142;16.290;2023-02-11T16:20:51;6.80;73.40
14095;DHT22;18096;48.142;16.290;2023-02-11T16:23:33;6.70;73.80
14095;DHT22;18096;48.142;16.290;2023-02-11T16:26:08;6.70;74.40
14095;DHT22;18096;48.142;16.290;2023-02-11T16:28:36;6.70;75.00
14095;DHT22;18096;48.142;16.290;2023-02-11T16:31:02;6.60;75.30
14095;DHT22;18096;48.142;16.290;2023-02-11T16:33:29;6.60;75.50
14095;DHT22;18096;48.142;16.290;2023-02-11T16:35:55;6.70;76.10
14095;DHT22;18096;48.142;16.290;2023-02-11T16:38:22;6.70;76.60
14095;DHT22;18096;48.142;16.290;2023-02-11T16:40:48;6.70;77.00
14095;DHT22;18096;48.142;16.290;2023-02-11T16:43:19;6.60;77.50
14095;DHT22;18096;48.142;16.290;2023-02-11T16:45:45;6.60;77.90
14095;DHT22;18096;48.142;16.290;2023-02-11T16:48:15;6.70;78.40
14095;DHT22;18096;48.142;16.290;2023-02-11T16:50:46;6.70;78.70
14095;DHT22;18096;48.142;16.290;2023-02-11T16:53:24;6.60;78.80
14095;DHT22;18096;48.142;16.290;2023-02-11T16:55:52;6.70;79.30
14095;DHT22;18096;48.142;16.290;2023-02-11T16:58:18;6.70;79.50
14095;DHT22;18096;48.142;16.290;2023-02-11T17:00:46;6.70;79.70
14095;DHT22;18096;48.142;16.290;2023-02-11T17:03:17;6.70;79.70
14095;DHT22;18096;48.142;16.290;2023-02-11T17:05:44;6.70;79.80
14095;DHT22;18096;48.142;16.290;2023-02-11T17:08:11;6.70;79.90
14095;DHT22;18096;48.142;16.290;2023-02-11T17:10:38;6.60;80.00
14095;DHT22;18096;48.142;16.290;2023-02-11T17:13:04;6.60;80.10
14095;DHT22;18096;48.142;16.290;2023-02-11T17:15:31;6.60;80.10
14095;DHT22;18096;48.142;16.290;2023-02-11T17:17:58;6.60;80.10
14095;DHT22;18096;48.142;16.290;2023-02-11T17:20:26;6.50;80.00
14095;DHT22;18096;48.142;16.290;2023-02-11T17:22:52;6.50;79.80
14095;DHT22;18096;48.142;16.290;2023-02-11T17:25:19;6.50;79.80
14095;DHT22;18096;48.142;16.290;2023-02-11T17:27:45;6.50;79.90
14095;DHT22;18096;48.142;16.290;2023-02-11T17:30:12;6.50;79.80
14095;DHT22;18096;48.142;16.290;2023-02-11T17:32:41;6.40;79.50
14095;DHT22;18096;48.142;16.290;2023-02-11T17:35:07;6.50;79.40
14095;DHT22;18096;48.142;16.290;2023-02-11T17:37:34;6.40;79.10
14095;DHT22;18096;48.142;16.290;2023-02-11T17:40:00;6.40;78.90
14095;DHT22;18096;48.142;16.290;2023-02-11T17:42:26;6.40;78.70
14095;DHT22;18096;48.142;16.290;2023-02-11T17:44:54;6.40;78.40
14095;DHT22;18096;48.142;16.290;2023-02-11T17:47:21;6.40;78.10
14095;DHT22;18096;48.142;16.290;2023-02-11T17:49:47;6.40;78.00
14095;DHT22;18096;48.142;16.290;2023-02-11T17:52:13;6.40;77.80
14095;DHT22;18096;48.142;16.290;2023-02-11T17:54:39;6.40;77.70
14095;DHT22;18096;48.142;16.290;2023-02-11T17:57:05;6.40;77.50
14095;DHT22;18096;48.142;16.290;2023-02-11T17:59:31;6.40;77.50
14095;DHT22;18096;48.142;16.290;2023-02-11T18:02:01;6.40;77.40
14095;DHT22;18096;48.142;16.290;2023-02-11T18:04:27;6.40;77.20
14095;DHT22;18096;48.142;16.290;2023-02-11T18:06:54;6.40;77.10
14095;DHT22;18096;48.142;16.290;2023-02-11T18:09:21;6.40;77.10
14095;DHT22;18096;48.142;16.290;2023-02-11T18:11:47;6.40;77.00
14095;DHT22;18096;48.142;16.290;2023-02-11T18:14:15;6.50;77.00
14095;DHT22;18096;48.142;16.290;2023-02-11T18:16:41;6.50;77.10
14095;DHT22;18096;48.142;16.290;2023-02-11T18:19:09;6.50;77.00
14095;DHT22;18096;48.142;16.290;2023-02-11T18:21:36;6.50;76.90
14095;DHT22;18096;48.142;16.290;2023-02-11T18:24:02;6.50;76.90
14095;DHT22;18096;48.142;16.290;2023-02-11T18:26:29;6.50;76.80
14095;DHT22;18096;48.142;16.290;2023-02-11T18:28:57;6.50;76.80
14095;DHT22;18096;48.142;16.290;2023-02-11T18:31:27;6.60;82.20